sensor_id;sensor_type;location;lat;lon;timestamp;P1;durP1;ratioP1;P2;durP2;ratioP2
12076;SDS011;12420;42.676;23.262;2023-07-20T00:00:56;7.03;;;2.90;;
12076;SDS011;12420;42.676;23.262;2023-07-20T00:03:23;6.65;;;2.65;;
12076;SDS011;12420;42.676;23.262;2023-07-20T00:05:51;9.23;;;3.10;;
12076;SDS011;12420;42.676;23.262;2023-07-20T00:08:20;6.15;;;2.65;;
12076;SDS011;12420;42.676;23.262;2023-07-20T00:10:46;9.52;;;3.13;;
12076;SDS011;12420;42.676;23.262;2023-07-20T00:13:13;9.82;;;3.30;;
12076;SDS011;12420;42.676;23.262;2023-07-20T00:15:41;5.97;;;2.95;;
12076;SDS011;12420;42.676;23.262;2023-07-20T00:18:08;7.20;;;2.80;;
12076;SDS011;12420;42.676;23.262;2023-07-20T00:20:34;7.93;;;2.83;;
12076;SDS011;12420;42.676;23.262;2023-07-20T00:23:01;7.50;;;2.90;;
12076;SDS011;12420;42.676;23.262;2023-07-20T00:25:30;6.63;;;2.50;;
12076;SDS011;12420;42.676;23.262;2023-07-20T00:27:57;5.03;;;2.70;;
12076;SDS011;12420;42.676;23.262;2023-07-20T00:30:23;6.28;;;2.85;;
12076;SDS011;12420;42.676;23.262;2023-07-20T00:32:50;7.10;;;3.13;;
12076;SDS011;12420;42.676;23.262;2023-07-20T00:35:17;6.60;;;3.03;;
12076;SDS011;12420;42.676;23.262;2023-07-20T00:37:44;6.15;;;3.25;;
12076;SDS011;12420;42.676;23.262;2023-07-20T00:40:10;10.35;;;3.53;;
12076;SDS011;12420;42.676;23.262;2023-07-20T00:42:39;7.03;;;3.30;;
12076;SDS011;12420;42.676;23.262;2023-07-20T00:45:06;7.22;;;3.30;;
12076;SDS011;12420;42.676;23.262;2023-07-20T00:47:33;6.28;;;3.15;;
12076;SDS011;12420;42.676;23.262;2023-07-20T00:49:59;5.75;;;3.33;;
12076;SDS011;12420;42.676;23.262;2023-07-20T00:52:26;7.53;;;3.15;;
12076;SDS011;12420;42.676;23.262;2023-07-20T00:54:54;8.73;;;3.30;;
12076;SDS011;12420;42.676;23.262;2023-07-20T00:57:23;7.50;;;3.08;;
12076;SDS011;12420;42.676;23.262;2023-07-20T00:59:52;8.40;;;3.17;;
12076;SDS011;12420;42.676;23.262;2023-07-20T01:02:19;8.73;;;3.22;;
12076;SDS011;12420;42.676;23.262;2023-07-20T01:04:46;6.43;;;3.25;;
12076;SDS011;12420;42.676;23.262;2023-07-20T01:07:14;5.60;;;3.00;;
12076;SDS011;12420;42.676;23.262;2023-07-20T01:09:52;9.87;;;3.70;;
12076;SDS011;12420;42.676;23.262;2023-07-20T01:12:26;8.27;;;3.20;;
12076;SDS011;12420;42.676;23.262;2023-07-20T01:14:58;6.28;;;2.80;;
12076;SDS011;12420;42.676;23.262;2023-07-20T01:17:25;9.98;;;2.92;;
12076;SDS011;12420;42.676;23.262;2023-07-20T01:19:52;7.53;;;2.95;;
12076;SDS011;12420;42.676;23.262;2023-07-20T01:22:22;9.63;;;3.10;;
12076;SDS011;12420;42.676;23.262;2023-07-20T01:25:08;12.00;;;3.65;;
12076;SDS011;12420;42.676;23.262;2023-07-20T01:30:52;7.03;;;2.80;;
12076;SDS011;12420;42.676;23.262;2023-07-20T01:33:27;6.47;;;3.08;;
12076;SDS011;12420;42.676;23.262;2023-07-20T01:35:57;7.13;;;3.30;;
12076;SDS011;12420;42.676;23.262;2023-07-20T01:38:26;9.40;;;3.30;;
12076;SDS011;12420;42.676;23.262;2023-07-20T01:40:53;5.55;;;3.05;;
12076;SDS011;12420;42.676;23.262;2023-07-20T01:43:20;6.13;;;3.20;;
12076;SDS011;12420;42.676;23.262;2023-07-20T01:45:47;5.95;;;3.10;;
12076;SDS011;12420;42.676;23.262;2023-07-20T01:48:14;7.53;;;3.17;;
12076;SDS011;12420;42.676;23.262;2023-07-20T01:50:42;12.20;;;3.70;;
12076;SDS011;12420;42.676;23.262;2023-07-20T01:53:09;9.45;;;3.60;;
12076;SDS011;12420;42.676;23.262;2023-07-20T01:55:36;16.43;;;3.90;;
12076;SDS011;12420;42.676;23.262;2023-07-20T01:58:03;15.80;;;3.77;;
12076;SDS011;12420;42.676;23.262;2023-07-20T02:00:31;6.63;;;3.27;;
12076;SDS011;12420;42.676;23.262;2023-07-20T02:02:58;7.73;;;3.33;;
12076;SDS011;12420;42.676;23.262;2023-07-20T02:05:24;6.20;;;3.37;;
12076;SDS011;12420;42.676;23.262;2023-07-20T02:07:52;6.37;;;3.00;;
12076;SDS011;12420;42.676;23.262;2023-07-20T02:10:19;6.03;;;2.90;;
12076;SDS011;12420;42.676;23.262;2023-07-20T02:12:46;10.13;;;3.97;;
12076;SDS011;12420;42.676;23.262;2023-07-20T02:15:13;7.23;;;4.43;;
12076;SDS011;12420;42.676;23.262;2023-07-20T02:17:41;6.50;;;3.50;;
12076;SDS011;12420;42.676;23.262;2023-07-20T02:20:08;8.52;;;4.22;;
12076;SDS011;12420;42.676;23.262;2023-07-20T02:22:36;8.27;;;4.00;;
12076;SDS011;12420;42.676;23.262;2023-07-20T02:25:05;8.20;;;3.53;;
12076;SDS011;12420;42.676;23.262;2023-07-20T02:27:32;9.27;;;4.03;;
12076;SDS011;12420;42.676;23.262;2023-07-20T02:30:00;7.10;;;3.00;;
12076;SDS011;12420;42.676;23.262;2023-07-20T02:32:27;7.60;;;3.63;;
12076;SDS011;12420;42.676;23.262;2023-07-20T02:34:55;12.45;;;3.90;;
12076;SDS011;12420;42.676;23.262;2023-07-20T02:37:22;9.95;;;3.60;;
12076;SDS011;12420;42.676;23.262;2023-07-20T02:39:49;8.48;;;2.90;;
12076;SDS011;12420;42.676;23.262;2023-07-20T02:42:17;5.07;;;3.00;;
12076;SDS011;12420;42.676;23.262;2023-07-20T02:44:44;8.63;;;3.50;;
12076;SDS011;12420;42.676;23.262;2023-07-20T02:47:11;5.82;;;3.53;;
12076;SDS011;12420;42.676;23.262;2023-07-20T02:49:38;6.83;;;3.70;;
12076;SDS011;12420;42.676;23.262;2023-07-20T02:52:05;7.63;;;3.00;;
12076;SDS011;12420;42.676;23.262;2023-07-20T02:54:32;9.25;;;3.63;;
12076;SDS011;12420;42.676;23.262;2023-07-20T02:56:59;7.90;;;4.00;;
12076;SDS011;12420;42.676;23.262;2023-07-20T02:59:27;9.07;;;4.00;;
12076;SDS011;12420;42.676;23.262;2023-07-20T03:01:54;10.33;;;4.50;;
12076;SDS011;12420;42.676;23.262;2023-07-20T03:04:22;11.43;;;4.63;;
12076;SDS011;12420;42.676;23.262;2023-07-20T03:06:50;10.03;;;4.00;;
12076;SDS011;12420;42.676;23.262;2023-07-20T03:09:16;11.67;;;4.60;;
12076;SDS011;12420;42.676;23.262;2023-07-20T03:11:43;8.97;;;4.37;;
12076;SDS011;12420;42.676;23.262;2023-07-20T03:14:10;10.37;;;4.10;;
12076;SDS011;12420;42.676;23.262;2023-07-20T03:16:39;13.43;;;4.40;;
12076;SDS011;12420;42.676;23.262;2023-07-20T03:19:06;9.37;;;4.37;;
12076;SDS011;12420;42.676;23.262;2023-07-20T03:21:36;11.33;;;4.67;;
12076;SDS011;12420;42.676;23.262;2023-07-20T03:24:06;11.43;;;4.80;;
12076;SDS011;12420;42.676;23.262;2023-07-20T03:26:34;11.27;;;4.83;;
12076;SDS011;12420;42.676;23.262;2023-07-20T03:29:01;13.97;;;5.13;;
12076;SDS011;12420;42.676;23.262;2023-07-20T03:31:28;12.93;;;5.17;;
12076;SDS011;12420;42.676;23.262;2023-07-20T03:33:57;13.43;;;4.60;;
12076;SDS011;12420;42.676;23.262;2023-07-20T03:36:23;10.03;;;4.50;;
12076;SDS011;12420;42.676;23.262;2023-07-20T03:38:50;8.53;;;4.87;;
12076;SDS011;12420;42.676;23.262;2023-07-20T03:41:17;11.53;;;5.37;;
12076;SDS011;12420;42.676;23.262;2023-07-20T03:43:45;11.60;;;5.27;;
12076;SDS011;12420;42.676;23.262;2023-07-20T03:46:12;10.53;;;5.00;;
12076;SDS011;12420;42.676;23.262;2023-07-20T03:48:39;11.37;;;5.20;;
12076;SDS011;12420;42.676;23.262;2023-07-20T03:51:08;8.67;;;4.67;;
12076;SDS011;12420;42.676;23.262;2023-07-20T03:53:35;10.70;;;4.57;;
12076;SDS011;12420;42.676;23.262;2023-07-20T03:56:02;10.33;;;4.90;;
12076;SDS011;12420;42.676;23.262;2023-07-20T03:58:29;14.97;;;4.90;;
12076;SDS011;12420;42.676;23.262;2023-07-20T04:00:57;10.97;;;4.53;;
12076;SDS011;12420;42.676;23.262;2023-07-20T04:03:24;15.10;;;4.40;;
12076;SDS011;12420;42.676;23.262;2023-07-20T04:05:53;14.33;;;4.90;;
12076;SDS011;12420;42.676;23.262;2023-07-20T04:08:22;12.40;;;4.37;;
12076;SDS011;12420;42.676;23.262;2023-07-20T04:10:50;9.30;;;4.73;;
12076;SDS011;12420;42.676;23.262;2023-07-20T04:13:17;16.07;;;4.77;;
12076;SDS011;12420;42.676;23.262;2023-07-20T04:15:46;10.15;;;4.60;;
12076;SDS011;12420;42.676;23.262;2023-07-20T04:18:13;12.47;;;4.53;;
12076;SDS011;12420;42.676;23.262;2023-07-20T04:20:39;11.60;;;4.80;;
12076;SDS011;12420;42.676;23.262;2023-07-20T04:23:07;11.97;;;4.23;;
12076;SDS011;12420;42.676;23.262;2023-07-20T04:25:36;8.75;;;4.55;;
12076;SDS011;12420;42.676;23.262;2023-07-20T04:28:05;13.03;;;4.53;;
12076;SDS011;12420;42.676;23.262;2023-07-20T04:30:35;10.15;;;3.78;;
12076;SDS011;12420;42.676;23.262;2023-07-20T04:33:02;11.35;;;4.47;;
12076;SDS011;12420;42.676;23.262;2023-07-20T04:35:45;10.03;;;4.00;;
12076;SDS011;12420;42.676;23.262;2023-07-20T04:38:16;10.45;;;4.28;;
12076;SDS011;12420;42.676;23.262;2023-07-20T04:40:45;11.10;;;4.53;;
12076;SDS011;12420;42.676;23.262;2023-07-20T04:43:13;12.95;;;4.70;;
12076;SDS011;12420;42.676;23.262;2023-07-20T04:45:40;10.35;;;4.30;;
12076;SDS011;12420;42.676;23.262;2023-07-20T04:48:09;12.77;;;5.10;;
12076;SDS011;12420;42.676;23.262;2023-07-20T04:50:36;10.55;;;4.82;;
12076;SDS011;12420;42.676;23.262;2023-07-20T04:53:04;15.70;;;4.80;;
12076;SDS011;12420;42.676;23.262;2023-07-20T04:55:31;10.05;;;4.60;;
12076;SDS011;12420;42.676;23.262;2023-07-20T04:58:01;13.48;;;4.55;;
12076;SDS011;12420;42.676;23.262;2023-07-20T05:00:28;11.77;;;4.35;;
12076;SDS011;12420;42.676;23.262;2023-07-20T05:02:55;9.93;;;4.30;;
12076;SDS011;12420;42.676;23.262;2023-07-20T05:05:22;8.00;;;3.85;;
12076;SDS011;12420;42.676;23.262;2023-07-20T05:07:49;11.23;;;3.92;;
12076;SDS011;12420;42.676;23.262;2023-07-20T05:10:17;10.07;;;4.18;;
12076;SDS011;12420;42.676;23.262;2023-07-20T05:12:44;12.25;;;3.80;;
12076;SDS011;12420;42.676;23.262;2023-07-20T05:15:12;8.57;;;3.42;;
12076;SDS011;12420;42.676;23.262;2023-07-20T05:17:38;9.13;;;3.78;;
12076;SDS011;12420;42.676;23.262;2023-07-20T05:20:06;10.18;;;3.40;;
12076;SDS011;12420;42.676;23.262;2023-07-20T05:22:35;7.57;;;3.70;;
12076;SDS011;12420;42.676;23.262;2023-07-20T05:25:05;9.43;;;3.40;;
12076;SDS011;12420;42.676;23.262;2023-07-20T05:27:33;12.05;;;3.45;;
12076;SDS011;12420;42.676;23.262;2023-07-20T05:30:00;6.65;;;3.60;;
12076;SDS011;12420;42.676;23.262;2023-07-20T05:32:28;7.57;;;3.42;;
12076;SDS011;12420;42.676;23.262;2023-07-20T05:34:55;9.05;;;3.28;;
12076;SDS011;12420;42.676;23.262;2023-07-20T05:37:22;9.77;;;3.88;;
12076;SDS011;12420;42.676;23.262;2023-07-20T05:39:49;9.10;;;3.92;;
12076;SDS011;12420;42.676;23.262;2023-07-20T05:42:16;5.97;;;3.20;;
12076;SDS011;12420;42.676;23.262;2023-07-20T05:44:43;7.55;;;3.38;;
12076;SDS011;12420;42.676;23.262;2023-07-20T05:47:12;9.23;;;3.65;;
12076;SDS011;12420;42.676;23.262;2023-07-20T05:49:41;7.65;;;3.60;;
12076;SDS011;12420;42.676;23.262;2023-07-20T05:52:10;9.40;;;3.38;;
12076;SDS011;12420;42.676;23.262;2023-07-20T05:54:37;7.47;;;3.28;;
12076;SDS011;12420;42.676;23.262;2023-07-20T05:57:04;9.90;;;3.55;;
12076;SDS011;12420;42.676;23.262;2023-07-20T05:59:32;10.65;;;3.70;;
12076;SDS011;12420;42.676;23.262;2023-07-20T06:01:58;8.05;;;3.38;;
12076;SDS011;12420;42.676;23.262;2023-07-20T06:04:27;8.73;;;3.35;;
12076;SDS011;12420;42.676;23.262;2023-07-20T06:07:05;5.68;;;3.08;;
12076;SDS011;12420;42.676;23.262;2023-07-20T06:09:34;11.88;;;3.78;;
12076;SDS011;12420;42.676;23.262;2023-07-20T06:12:01;13.65;;;4.18;;
12076;SDS011;12420;42.676;23.262;2023-07-20T06:14:28;10.27;;;3.60;;
12076;SDS011;12420;42.676;23.262;2023-07-20T06:16:55;12.35;;;3.50;;
12076;SDS011;12420;42.676;23.262;2023-07-20T06:19:22;10.63;;;3.75;;
12076;SDS011;12420;42.676;23.262;2023-07-20T06:21:49;7.88;;;3.70;;
12076;SDS011;12420;42.676;23.262;2023-07-20T06:24:17;8.45;;;3.90;;
12076;SDS011;12420;42.676;23.262;2023-07-20T06:26:48;10.60;;;3.67;;
12076;SDS011;12420;42.676;23.262;2023-07-20T06:29:15;9.05;;;3.80;;
12076;SDS011;12420;42.676;23.262;2023-07-20T06:31:41;7.13;;;3.67;;
12076;SDS011;12420;42.676;23.262;2023-07-20T06:34:08;8.82;;;3.67;;
12076;SDS011;12420;42.676;23.262;2023-07-20T06:36:35;7.60;;;3.85;;
12076;SDS011;12420;42.676;23.262;2023-07-20T06:39:02;8.18;;;4.20;;
12076;SDS011;12420;42.676;23.262;2023-07-20T06:41:31;9.52;;;4.00;;
12076;SDS011;12420;42.676;23.262;2023-07-20T06:44:00;9.45;;;4.10;;
12076;SDS011;12420;42.676;23.262;2023-07-20T06:46:27;12.30;;;4.40;;
12076;SDS011;12420;42.676;23.262;2023-07-20T06:48:54;13.55;;;4.05;;
12076;SDS011;12420;42.676;23.262;2023-07-20T06:51:22;15.98;;;4.13;;
12076;SDS011;12420;42.676;23.262;2023-07-20T06:53:52;8.68;;;4.03;;
12076;SDS011;12420;42.676;23.262;2023-07-20T06:56:19;8.15;;;3.75;;
12076;SDS011;12420;42.676;23.262;2023-07-20T06:58:48;10.20;;;4.50;;
12076;SDS011;12420;42.676;23.262;2023-07-20T07:01:15;10.20;;;4.20;;
12076;SDS011;12420;42.676;23.262;2023-07-20T07:03:42;8.48;;;4.00;;
12076;SDS011;12420;42.676;23.262;2023-07-20T07:06:09;10.15;;;4.20;;
12076;SDS011;12420;42.676;23.262;2023-07-20T07:08:41;10.68;;;4.13;;
12076;SDS011;12420;42.676;23.262;2023-07-20T07:11:10;9.13;;;4.18;;
12076;SDS011;12420;42.676;23.262;2023-07-20T07:13:36;11.95;;;4.10;;
12076;SDS011;12420;42.676;23.262;2023-07-20T07:16:05;10.35;;;4.72;;
12076;SDS011;12420;42.676;23.262;2023-07-20T07:18:32;13.13;;;4.47;;
12076;SDS011;12420;42.676;23.262;2023-07-20T07:20:59;11.13;;;3.92;;
12076;SDS011;12420;42.676;23.262;2023-07-20T07:23:26;11.52;;;4.03;;
12076;SDS011;12420;42.676;23.262;2023-07-20T07:25:53;12.68;;;4.30;;
12076;SDS011;12420;42.676;23.262;2023-07-20T07:28:20;12.68;;;4.30;;
12076;SDS011;12420;42.676;23.262;2023-07-20T07:30:47;11.73;;;4.10;;
12076;SDS011;12420;42.676;23.262;2023-07-20T07:33:16;11.45;;;4.20;;
12076;SDS011;12420;42.676;23.262;2023-07-20T07:35:43;12.68;;;4.70;;
12076;SDS011;12420;42.676;23.262;2023-07-20T07:38:10;14.90;;;4.80;;
12076;SDS011;12420;42.676;23.262;2023-07-20T07:40:37;12.18;;;5.07;;
12076;SDS011;12420;42.676;23.262;2023-07-20T07:43:03;10.93;;;4.55;;
12076;SDS011;12420;42.676;23.262;2023-07-20T07:45:30;15.52;;;4.30;;
12076;SDS011;12420;42.676;23.262;2023-07-20T07:48:00;7.10;;;4.20;;
12076;SDS011;12420;42.676;23.262;2023-07-20T07:50:29;9.05;;;4.05;;
12076;SDS011;12420;42.676;23.262;2023-07-20T07:52:56;8.45;;;4.38;;
12076;SDS011;12420;42.676;23.262;2023-07-20T07:55:24;14.93;;;4.25;;
12076;SDS011;12420;42.676;23.262;2023-07-20T07:57:51;12.40;;;4.45;;
12076;SDS011;12420;42.676;23.262;2023-07-20T08:00:18;9.23;;;4.40;;
12076;SDS011;12420;42.676;23.262;2023-07-20T08:02:46;14.93;;;4.07;;
12076;SDS011;12420;42.676;23.262;2023-07-20T08:05:13;19.65;;;4.90;;
12076;SDS011;12420;42.676;23.262;2023-07-20T08:07:44;10.23;;;4.32;;
12076;SDS011;12420;42.676;23.262;2023-07-20T08:10:11;10.00;;;3.83;;
12076;SDS011;12420;42.676;23.262;2023-07-20T08:12:38;9.65;;;4.40;;
12076;SDS011;12420;42.676;23.262;2023-07-20T08:15:05;13.65;;;3.83;;
12076;SDS011;12420;42.676;23.262;2023-07-20T08:17:33;11.05;;;3.63;;
12076;SDS011;12420;42.676;23.262;2023-07-20T08:20:00;5.93;;;3.00;;
12076;SDS011;12420;42.676;23.262;2023-07-20T08:22:27;11.18;;;3.17;;
12076;SDS011;12420;42.676;23.262;2023-07-20T08:24:58;8.48;;;3.33;;
12076;SDS011;12420;42.676;23.262;2023-07-20T08:27:25;6.18;;;3.10;;
12076;SDS011;12420;42.676;23.262;2023-07-20T08:29:52;9.20;;;2.80;;
12076;SDS011;12420;42.676;23.262;2023-07-20T08:32:20;15.00;;;3.08;;
12076;SDS011;12420;42.676;23.262;2023-07-20T08:35:06;11.00;;;3.42;;
12076;SDS011;12420;42.676;23.262;2023-07-20T08:37:37;11.57;;;3.22;;
12076;SDS011;12420;42.676;23.262;2023-07-20T08:40:09;7.63;;;2.92;;
12076;SDS011;12420;42.676;23.262;2023-07-20T08:42:37;12.10;;;3.58;;
12076;SDS011;12420;42.676;23.262;2023-07-20T08:45:06;8.32;;;3.22;;
12076;SDS011;12420;42.676;23.262;2023-07-20T08:47:37;8.63;;;3.08;;
12076;SDS011;12420;42.676;23.262;2023-07-20T08:50:05;5.95;;;2.80;;
12076;SDS011;12420;42.676;23.262;2023-07-20T08:52:34;5.90;;;3.00;;
12076;SDS011;12420;42.676;23.262;2023-07-20T08:55:01;13.38;;;2.95;;
12076;SDS011;12420;42.676;23.262;2023-07-20T08:57:31;8.60;;;2.85;;
12076;SDS011;12420;42.676;23.262;2023-07-20T08:59:59;8.10;;;3.00;;
12076;SDS011;12420;42.676;23.262;2023-07-20T09:02:30;8.95;;;2.92;;
12076;SDS011;12420;42.676;23.262;2023-07-20T09:05:02;6.65;;;2.85;;
12076;SDS011;12420;42.676;23.262;2023-07-20T09:07:30;5.38;;;2.40;;
12076;SDS011;12420;42.676;23.262;2023-07-20T09:09:58;8.00;;;2.60;;
12076;SDS011;12420;42.676;23.262;2023-07-20T09:12:32;4.93;;;3.03;;
12076;SDS011;12420;42.676;23.262;2023-07-20T09:15:04;9.35;;;3.17;;
12076;SDS011;12420;42.676;23.262;2023-07-20T09:17:33;9.98;;;3.00;;
12076;SDS011;12420;42.676;23.262;2023-07-20T09:20:02;10.20;;;2.67;;
12076;SDS011;12420;42.676;23.262;2023-07-20T09:22:33;5.95;;;2.70;;
12076;SDS011;12420;42.676;23.262;2023-07-20T09:25:00;8.85;;;3.00;;
12076;SDS011;12420;42.676;23.262;2023-07-20T09:27:35;14.35;;;3.10;;
12076;SDS011;12420;42.676;23.262;2023-07-20T09:30:07;4.55;;;2.42;;
12076;SDS011;12420;42.676;23.262;2023-07-20T09:32:38;11.05;;;3.17;;
12076;SDS011;12420;42.676;23.262;2023-07-20T09:35:06;11.05;;;3.30;;
12076;SDS011;12420;42.676;23.262;2023-07-20T09:37:38;8.68;;;2.90;;
12076;SDS011;12420;42.676;23.262;2023-07-20T09:40:06;7.18;;;2.70;;
12076;SDS011;12420;42.676;23.262;2023-07-20T09:42:36;8.00;;;2.70;;
12076;SDS011;12420;42.676;23.262;2023-07-20T09:45:06;7.63;;;2.97;;
12076;SDS011;12420;42.676;23.262;2023-07-20T09:47:35;7.10;;;2.60;;
12076;SDS011;12420;42.676;23.262;2023-07-20T09:50:03;7.18;;;2.50;;
12076;SDS011;12420;42.676;23.262;2023-07-20T09:52:35;11.48;;;2.92;;
12076;SDS011;12420;42.676;23.262;2023-07-20T09:55:05;7.28;;;2.40;;
12076;SDS011;12420;42.676;23.262;2023-07-20T09:57:33;5.72;;;2.78;;
12076;SDS011;12420;42.676;23.262;2023-07-20T10:00:02;5.18;;;3.05;;
12076;SDS011;12420;42.676;23.262;2023-07-20T10:02:33;6.53;;;2.63;;
12076;SDS011;12420;42.676;23.262;2023-07-20T10:05:03;9.63;;;2.88;;
12076;SDS011;12420;42.676;23.262;2023-07-20T10:07:30;4.53;;;2.10;;
12076;SDS011;12420;42.676;23.262;2023-07-20T10:10:01;7.50;;;2.90;;
12076;SDS011;12420;42.676;23.262;2023-07-20T10:12:30;8.75;;;2.72;;
12076;SDS011;12420;42.676;23.262;2023-07-20T10:15:03;5.88;;;2.50;;
12076;SDS011;12420;42.676;23.262;2023-07-20T10:17:37;7.20;;;2.60;;
12076;SDS011;12420;42.676;23.262;2023-07-20T10:20:23;7.82;;;2.58;;
12076;SDS011;12420;42.676;23.262;2023-07-20T10:22:53;6.20;;;2.40;;
12076;SDS011;12420;42.676;23.262;2023-07-20T10:25:21;7.05;;;2.50;;
12076;SDS011;12420;42.676;23.262;2023-07-20T10:27:51;4.93;;;2.72;;
12076;SDS011;12420;42.676;23.262;2023-07-20T10:30:19;6.93;;;2.63;;
12076;SDS011;12420;42.676;23.262;2023-07-20T10:32:46;4.95;;;2.78;;
12076;SDS011;12420;42.676;23.262;2023-07-20T10:35:15;7.63;;;2.58;;
12076;SDS011;12420;42.676;23.262;2023-07-20T10:37:47;4.78;;;2.95;;
12076;SDS011;12420;42.676;23.262;2023-07-20T10:40:26;6.30;;;2.70;;
12076;SDS011;12420;42.676;23.262;2023-07-20T10:43:02;5.15;;;2.40;;
12076;SDS011;12420;42.676;23.262;2023-07-20T10:45:42;3.80;;;2.30;;
12076;SDS011;12420;42.676;23.262;2023-07-20T10:48:16;9.10;;;2.70;;
12076;SDS011;12420;42.676;23.262;2023-07-20T10:50:44;5.80;;;2.50;;
12076;SDS011;12420;42.676;23.262;2023-07-20T10:53:16;7.13;;;2.53;;
12076;SDS011;12420;42.676;23.262;2023-07-20T10:55:48;7.53;;;2.92;;
12076;SDS011;12420;42.676;23.262;2023-07-20T10:58:31;5.25;;;2.70;;
12076;SDS011;12420;42.676;23.262;2023-07-20T11:01:02;10.15;;;2.85;;
12076;SDS011;12420;42.676;23.262;2023-07-20T11:03:32;10.40;;;3.75;;
12076;SDS011;12420;42.676;23.262;2023-07-20T11:05:59;7.88;;;2.90;;
12076;SDS011;12420;42.676;23.262;2023-07-20T11:08:57;6.40;;;2.55;;
12076;SDS011;12420;42.676;23.262;2023-07-20T11:11:32;8.60;;;3.00;;
12076;SDS011;12420;42.676;23.262;2023-07-20T11:14:00;9.65;;;2.88;;
12076;SDS011;12420;42.676;23.262;2023-07-20T11:16:36;12.25;;;3.53;;
12076;SDS011;12420;42.676;23.262;2023-07-20T11:19:05;10.35;;;3.17;;
12076;SDS011;12420;42.676;23.262;2023-07-20T11:21:36;7.53;;;3.10;;
12076;SDS011;12420;42.676;23.262;2023-07-20T11:24:05;5.13;;;3.25;;
12076;SDS011;12420;42.676;23.262;2023-07-20T11:26:43;6.25;;;2.80;;
12076;SDS011;12420;42.676;23.262;2023-07-20T11:29:11;10.43;;;3.22;;
12076;SDS011;12420;42.676;23.262;2023-07-20T11:31:39;7.38;;;3.42;;
12076;SDS011;12420;42.676;23.262;2023-07-20T11:34:10;7.18;;;3.05;;
12076;SDS011;12420;42.676;23.262;2023-07-20T11:36:38;5.32;;;3.42;;
12076;SDS011;12420;42.676;23.262;2023-07-20T11:39:07;5.55;;;3.33;;
12076;SDS011;12420;42.676;23.262;2023-07-20T11:41:35;8.82;;;3.53;;
12076;SDS011;12420;42.676;23.262;2023-07-20T11:44:03;8.52;;;3.67;;
12076;SDS011;12420;42.676;23.262;2023-07-20T11:46:33;6.22;;;3.33;;
12076;SDS011;12420;42.676;23.262;2023-07-20T11:49:07;8.95;;;3.78;;
12076;SDS011;12420;42.676;23.262;2023-07-20T11:51:34;6.88;;;3.53;;
12076;SDS011;12420;42.676;23.262;2023-07-20T11:54:05;4.05;;;3.45;;
12076;SDS011;12420;42.676;23.262;2023-07-20T11:56:36;5.65;;;3.58;;
12076;SDS011;12420;42.676;23.262;2023-07-20T11:59:07;7.35;;;3.80;;
12076;SDS011;12420;42.676;23.262;2023-07-20T12:01:37;10.07;;;3.67;;
12076;SDS011;12420;42.676;23.262;2023-07-20T12:04:04;5.47;;;3.42;;
12076;SDS011;12420;42.676;23.262;2023-07-20T12:06:38;8.40;;;3.65;;
12076;SDS011;12420;42.676;23.262;2023-07-20T12:09:06;8.65;;;3.63;;
12076;SDS011;12420;42.676;23.262;2023-07-20T12:11:42;10.48;;;3.65;;
12076;SDS011;12420;42.676;23.262;2023-07-20T12:14:11;6.38;;;3.40;;
12076;SDS011;12420;42.676;23.262;2023-07-20T12:16:38;9.05;;;3.50;;
12076;SDS011;12420;42.676;23.262;2023-07-20T12:19:05;4.80;;;3.10;;
12076;SDS011;12420;42.676;23.262;2023-07-20T12:21:39;5.75;;;3.20;;
12076;SDS011;12420;42.676;23.262;2023-07-20T12:24:18;9.20;;;3.22;;
12076;SDS011;12420;42.676;23.262;2023-07-20T12:26:48;7.97;;;3.60;;
12076;SDS011;12420;42.676;23.262;2023-07-20T12:29:29;6.78;;;2.92;;
12076;SDS011;12420;42.676;23.262;2023-07-20T12:32:02;8.57;;;3.60;;
12076;SDS011;12420;42.676;23.262;2023-07-20T12:34:32;7.70;;;3.10;;
12076;SDS011;12420;42.676;23.262;2023-07-20T12:37:08;7.50;;;3.00;;
12076;SDS011;12420;42.676;23.262;2023-07-20T12:39:36;10.60;;;3.10;;
12076;SDS011;12420;42.676;23.262;2023-07-20T12:42:07;7.22;;;2.90;;
12076;SDS011;12420;42.676;23.262;2023-07-20T12:44:35;6.53;;;3.30;;
12076;SDS011;12420;42.676;23.262;2023-07-20T12:47:07;7.57;;;3.13;;
12076;SDS011;12420;42.676;23.262;2023-07-20T12:49:36;5.85;;;3.30;;
12076;SDS011;12420;42.676;23.262;2023-07-20T12:52:03;5.78;;;3.63;;
12076;SDS011;12420;42.676;23.262;2023-07-20T12:54:32;8.13;;;3.60;;
12076;SDS011;12420;42.676;23.262;2023-07-20T12:57:04;7.78;;;3.53;;
12076;SDS011;12420;42.676;23.262;2023-07-20T12:59:42;8.07;;;2.80;;
12076;SDS011;12420;42.676;23.262;2023-07-20T13:02:08;12.10;;;3.22;;
12076;SDS011;12420;42.676;23.262;2023-07-20T13:04:35;8.55;;;3.60;;
12076;SDS011;12420;42.676;23.262;2023-07-20T13:07:14;10.60;;;3.28;;
12076;SDS011;12420;42.676;23.262;2023-07-20T13:09:45;11.05;;;3.10;;
12076;SDS011;12420;42.676;23.262;2023-07-20T13:12:12;6.43;;;3.00;;
12076;SDS011;12420;42.676;23.262;2023-07-20T13:14:41;12.38;;;3.60;;
12076;SDS011;12420;42.676;23.262;2023-07-20T13:17:13;7.72;;;3.45;;
12076;SDS011;12420;42.676;23.262;2023-07-20T13:19:40;6.88;;;3.00;;
12076;SDS011;12420;42.676;23.262;2023-07-20T13:22:12;8.98;;;3.45;;
12076;SDS011;12420;42.676;23.262;2023-07-20T13:24:45;10.50;;;3.55;;
12076;SDS011;12420;42.676;23.262;2023-07-20T13:27:14;12.40;;;3.83;;
12076;SDS011;12420;42.676;23.262;2023-07-20T13:29:41;19.45;;;3.25;;
12076;SDS011;12420;42.676;23.262;2023-07-20T13:32:07;26.05;;;4.05;;
12076;SDS011;12420;42.676;23.262;2023-07-20T13:34:37;7.00;;;2.97;;
12076;SDS011;12420;42.676;23.262;2023-07-20T13:37:07;18.58;;;3.65;;
12076;SDS011;12420;42.676;23.262;2023-07-20T13:39:38;7.47;;;2.83;;
12076;SDS011;12420;42.676;23.262;2023-07-20T13:42:07;9.35;;;2.78;;
12076;SDS011;12420;42.676;23.262;2023-07-20T13:44:42;8.70;;;3.05;;
12076;SDS011;12420;42.676;23.262;2023-07-20T13:47:20;11.57;;;2.97;;
12076;SDS011;12420;42.676;23.262;2023-07-20T13:49:49;8.63;;;2.88;;
12076;SDS011;12420;42.676;23.262;2023-07-20T13:52:16;14.52;;;3.10;;
12076;SDS011;12420;42.676;23.262;2023-07-20T13:54:43;9.40;;;2.95;;
12076;SDS011;12420;42.676;23.262;2023-07-20T13:57:14;11.05;;;3.20;;
12076;SDS011;12420;42.676;23.262;2023-07-20T13:59:41;7.38;;;3.33;;
12076;SDS011;12420;42.676;23.262;2023-07-20T14:02:14;7.82;;;2.90;;
12076;SDS011;12420;42.676;23.262;2023-07-20T14:04:45;4.70;;;2.63;;
12076;SDS011;12420;42.676;23.262;2023-07-20T14:07:16;8.80;;;2.67;;
12076;SDS011;12420;42.676;23.262;2023-07-20T14:09:45;7.35;;;2.92;;
12076;SDS011;12420;42.676;23.262;2023-07-20T14:12:18;10.88;;;2.95;;
12076;SDS011;12420;42.676;23.262;2023-07-20T14:14:45;8.25;;;2.90;;
12076;SDS011;12420;42.676;23.262;2023-07-20T14:17:12;6.18;;;2.45;;
12076;SDS011;12420;42.676;23.262;2023-07-20T14:19:39;4.95;;;2.83;;
12076;SDS011;12420;42.676;23.262;2023-07-20T14:22:13;5.03;;;3.00;;
12076;SDS011;12420;42.676;23.262;2023-07-20T14:24:41;11.05;;;3.03;;
12076;SDS011;12420;42.676;23.262;2023-07-20T14:27:08;8.73;;;2.60;;
12076;SDS011;12420;42.676;23.262;2023-07-20T14:29:41;9.70;;;2.85;;
12076;SDS011;12420;42.676;23.262;2023-07-20T14:32:08;5.15;;;2.65;;
12076;SDS011;12420;42.676;23.262;2023-07-20T14:34:35;7.35;;;2.80;;
12076;SDS011;12420;42.676;23.262;2023-07-20T14:37:08;7.13;;;2.45;;
12076;SDS011;12420;42.676;23.262;2023-07-20T14:39:38;14.23;;;3.17;;
12076;SDS011;12420;42.676;23.262;2023-07-20T14:42:12;12.52;;;2.90;;
12076;SDS011;12420;42.676;23.262;2023-07-20T14:44:40;4.75;;;2.53;;